Time;durP1;ratioP1;P1;durP2;ratioP2;P2;SDS_P1;SDS_P2;PMS_P1;PMS_P2;Temp;Humidity;BMP_temperature;BMP_pressure;BME280_temperature;BME280_humidity;BME280_pressure;Samples;Min_cycle;Max_cycle;Signal;HPM_P1;HPM_P2
2022/09/12 00:00:47;;;;;;;2.47;1.55;;;14.80;84.40;;;;;;5117045;28;20063;-76
2022/09/12 00:03:13;;;;;;;1.90;1.40;;;14.80;84.40;;;;;;5112028;28;20051;-77
2022/09/12 00:05:43;;;;;;;1.80;1.48;;;14.80;84.50;;;;;;5112751;28;20048;-77
2022/09/12 00:08:10;;;;;;;1.73;1.30;;;14.80;84.60;;;;;;5096046;28;20057;-77
2022/09/12 00:10:40;;;;;;;1.48;1.30;;;14.80;84.60;;;;;;5100779;28;20047;-80
2022/09/12 00:13:07;;;;;;;1.98;1.40;;;14.70;84.60;;;;;;5094346;28;20066;-76
2022/09/12 00:15:38;;;;;;;1.70;1.38;;;14.80;84.60;;;;;;5112162;28;20039;-76
2022/09/12 00:18:05;;;;;;;1.75;1.20;;;14.80;84.70;;;;;;5094450;28;20059;-76
2022/09/12 00:20:31;;;;;;;1.75;1.25;;;14.70;84.70;;;;;;5076815;28;20058;-76
2022/09/12 00:22:57;;;;;;;2.08;1.40;;;14.70;84.70;;;;;;5114649;28;20079;-77
2022/09/12 00:25:23;;;;;;;1.95;1.30;;;14.60;84.60;;;;;;5118492;28;20040;-77
2022/09/12 00:27:48;;;;;;;2.00;1.42;;;14.70;84.70;;;;;;5117662;28;20050;-76
2022/09/12 00:30:14;;;;;;;1.70;1.20;;;14.60;84.70;;;;;;5093637;28;20043;-75
2022/09/12 00:32:40;;;;;;;2.08;1.48;;;14.60;84.80;;;;;;5111690;28;20058;-77
2022/09/12 00:35:06;;;;;;;2.30;1.42;;;14.60;84.80;;;;;;5111970;28;20116;-77
2022/09/12 00:37:34;;;;;;;2.47;1.48;;;14.60;84.80;;;;;;5076678;28;20381;-76
2022/09/12 00:39:59;;;;;;;1.98;1.40;;;14.50;84.90;;;;;;5111605;28;20487;-77
2022/09/12 00:42:25;;;;;;;1.83;1.50;;;14.60;85.00;;;;;;5093806;28;20047;-76
2022/09/12 00:44:51;;;;;;;1.38;1.10;;;14.50;84.90;;;;;;5093870;28;20043;-76
2022/09/12 00:47:23;;;;;;;3.38;1.60;;;14.50;84.90;;;;;;5076709;28;20043;-77
2022/09/12 00:49:57;;;;;;;2.70;1.30;;;14.50;85.00;;;;;;5112382;28;20035;-76
2022/09/12 00:52:31;;;;;;;1.95;1.38;;;14.50;85.00;;;;;;5097602;28;20051;-75
2022/09/12 00:55:08;;;;;;;2.15;1.40;;;14.50;85.00;;;;;;5114929;28;20096;-77
2022/09/12 00:57:40;;;;;;;2.00;1.40;;;14.50;85.00;;;;;;5113979;28;20047;-76
2022/09/12 01:00:14;;;;;;;1.83;1.30;;;14.50;85.00;;;;;;5113613;28;20056;-76
2022/09/12 01:02:44;;;;;;;1.55;1.20;;;14.50;85.00;;;;;;5115382;28;20062;-75
2022/09/12 01:05:11;;;;;;;1.65;1.20;;;14.50;85.00;;;;;;5114801;28;20044;-75
2022/09/12 01:07:38;;;;;;;2.28;1.38;;;14.50;85.10;;;;;;5114687;28;20047;-75
2022/09/12 01:10:06;;;;;;;1.35;1.05;;;14.40;85.10;;;;;;5096886;28;20043;-75
2022/09/12 01:12:33;;;;;;;1.48;1.23;;;14.40;85.10;;;;;;5113221;28;20044;-75
2022/09/12 01:14:59;;;;;;;1.90;1.25;;;14.50;85.20;;;;;;5114493;28;20062;-75
2022/09/12 01:17:33;;;;;;;1.15;1.02;;;14.40;85.10;;;;;;5115049;28;20051;-75
2022/09/12 01:20:35;;;;;;;2.20;1.30;;;14.40;85.10;;;;;;5096205;28;20046;-75
2022/09/12 01:23:17;;;;;;;;;;;14.40;85.10;;;;;;5084573;28;20048;-75
2022/09/12 01:26:03;;;;;;;1.17;1.00;;;14.40;85.10;;;;;;5094953;28;19926;-75
2022/09/12 01:28:46;;;;;;;1.52;1.10;;;14.40;85.00;;;;;;5095967;28;20382;-75
2022/09/12 01:31:24;;;;;;;1.40;1.10;;;14.30;85.10;;;;;;5114097;28;20101;-75
2022/09/12 01:34:11;;;;;;;1.45;1.17;;;14.40;85.10;;;;;;5114364;28;20458;-75
2022/09/12 01:36:54;;;;;;;1.92;1.40;;;14.30;85.10;;;;;;5114383;28;20040;-76
2022/09/12 01:39:45;;;;;;;1.65;1.20;;;14.30;85.10;;;;;;5114229;28;20074;-75
2022/09/12 01:42:33;;;;;;;1.58;1.08;;;14.30;85.20;;;;;;5096090;28;20443;-75
2022/09/12 01:45:27;;;;;;;2.05;1.23;;;14.30;85.20;;;;;;5096990;28;20145;-75
2022/09/12 01:47:59;;;;;;;1.60;1.20;;;14.30;85.20;;;;;;5099576;28;20107;-75
2022/09/12 01:50:30;;;;;;;1.50;1.17;;;14.30;85.30;;;;;;5114487;28;20043;-75
2022/09/12 01:53:00;;;;;;;;;;;14.10;85.20;;;;;;5094049;28;20048;-75
2022/09/12 01:55:35;;;;;;;1.15;0.95;;;14.20;85.20;;;;;;5114115;28;20407;-75
2022/09/12 01:58:11;;;;;;;1.38;1.10;;;14.20;85.20;;;;;;5113945;28;20512;-75
2022/09/12 02:00:46;;;;;;;1.80;1.27;;;14.20;85.30;;;;;;5096750;28;20044;-75
2022/09/12 02:03:18;;;;;;;1.80;1.05;;;14.30;85.40;;;;;;5113207;28;20405;-75
2022/09/12 02:05:53;;;;;;;2.58;1.33;;;14.10;85.40;;;;;;5114170;28;20039;-75
2022/09/12 02:08:27;;;;;;;1.85;1.33;;;14.10;85.40;;;;;;5114085;28;20088;-75
2022/09/12 02:10:58;;;;;;;1.60;1.27;;;14.10;85.50;;;;;;5114082;28;20112;-75
2022/09/12 02:13:37;;;;;;;2.15;1.33;;;14.10;85.50;;;;;;5113665;28;20043;-75
2022/09/12 02:16:10;;;;;;;1.38;1.13;;;14.10;85.60;;;;;;5113603;28;20032;-75
2022/09/12 02:18:42;;;;;;;2.13;1.40;;;14.00;85.50;;;;;;5113978;28;20039;-75
2022/09/12 02:21:08;;;;;;;2.05;1.33;;;14.00;85.50;;;;;;5113912;28;20040;-75
2022/09/12 02:23:38;;;;;;;1.17;0.98;;;14.00;85.50;;;;;;5113867;28;20039;-75
2022/09/12 02:26:14;;;;;;;1.80;1.23;;;14.00;85.70;;;;;;5113512;28;20512;-75
2022/09/12 02:28:42;;;;;;;1.58;1.23;;;13.90;85.60;;;;;;5114066;28;20046;-75
2022/09/12 02:31:19;;;;;;;1.35;1.10;;;14.00;85.80;;;;;;5113585;28;20136;-75
2022/09/12 02:33:58;;;;;;;1.25;1.10;;;13.90;85.70;;;;;;5112178;28;20052;-75
2022/09/12 02:36:38;;;;;;;1.63;1.30;;;13.90;85.80;;;;;;5113563;28;20496;-75
2022/09/12 02:39:05;;;;;;;1.50;1.30;;;13.90;85.80;;;;;;5094879;28;20069;-75
2022/09/12 02:41:30;;;;;;;1.48;1.00;;;13.90;85.80;;;;;;5095082;28;20092;-75
2022/09/12 02:43:57;;;;;;;2.00;1.35;;;13.90;85.80;;;;;;5113139;28;20481;-75
2022/09/12 02:46:32;;;;;;;2.13;1.30;;;13.90;85.90;;;;;;5113019;28;20032;-75
2022/09/12 02:48:58;;;;;;;2.17;1.40;;;13.80;85.80;;;;;;5092956;28;20118;-74
2022/09/12 02:51:25;;;;;;;1.70;1.17;;;13.80;85.80;;;;;;5113562;28;20070;-75
2022/09/12 02:53:52;;;;;;;2.08;1.48;;;13.80;85.90;;;;;;5113148;28;20044;-75
2022/09/12 02:56:26;;;;;;;2.22;1.40;;;13.80;85.90;;;;;;5112981;28;20065;-75
2022/09/12 02:58:53;;;;;;;1.92;1.20;;;13.90;86.00;;;;;;5094856;28;20092;-75
2022/09/12 03:01:43;;;;;;;2.60;1.50;;;13.80;85.90;;;;;;5094456;28;20050;-75
2022/09/12 03:04:29;;;;;;;1.63;1.17;;;13.80;85.90;;;;;;5112514;28;20401;-75
2022/09/12 03:07:11;;;;;;;2.35;1.52;;;13.80;86.00;;;;;;5112551;28;20079;-75
2022/09/12 03:09:48;;;;;;;1.60;1.35;;;13.80;86.00;;;;;;5111757;28;20043;-75
2022/09/12 03:12:40;;;;;;;1.50;1.20;;;13.80;86.00;;;;;;5112863;28;20126;-75
2022/09/12 03:15:33;;;;;;;1.80;1.30;;;13.70;86.00;;;;;;5111563;28;20043;-75
2022/09/12 03:18:20;;;;;;;2.80;1.70;;;13.80;86.00;;;;;;5097316;28;20043;-75
2022/09/12 03:21:13;;;;;;;2.28;1.40;;;13.70;86.00;;;;;;5110691;28;20032;-75
2022/09/12 03:24:11;;;;;;;1.80;1.48;;;13.70;86.00;;;;;;5111662;28;20032;-75
2022/09/12 03:26:49;;;;;;;1.52;1.10;;;13.80;86.00;;;;;;5111511;28;20054;-75
2022/09/12 03:29:17;;;;;;;1.70;1.25;;;13.70;85.90;;;;;;5112589;28;20076;-75
2022/09/12 03:31:58;;;;;;;2.33;1.50;;;13.70;85.90;;;;;;5094823;28;20062;-75
2022/09/12 03:34:26;;;;;;;2.05;1.25;;;13.70;86.00;;;;;;5093167;28;20036;-75
2022/09/12 03:36:54;;;;;;;2.13;1.40;;;13.80;86.10;;;;;;5112371;28;20122;-75
2022/09/12 03:39:23;;;;;;;1.52;1.10;;;13.70;86.00;;;;;;5112300;28;20461;-75
2022/09/12 03:41:49;;;;;;;1.60;1.40;;;13.60;86.00;;;;;;5094625;28;20386;-75
2022/09/12 03:44:16;;;;;;;1.90;1.50;;;13.70;86.00;;;;;;5093938;28;20046;-74
2022/09/12 03:46:41;;;;;;;2.03;1.10;;;13.70;86.00;;;;;;5077185;28;20431;-74
2022/09/12 03:49:07;;;;;;;1.65;1.27;;;13.70;86.10;;;;;;5112353;28;20044;-74
2022/09/12 03:51:33;;;;;;;1.75;1.30;;;13.70;86.10;;;;;;5112091;28;20085;-75
2022/09/12 03:54:00;;;;;;;2.10;1.40;;;13.60;86.10;;;;;;5093976;28;20132;-75
2022/09/12 03:56:26;;;;;;;2.00;1.50;;;13.60;86.10;;;;;;5112019;28;20120;-74
2022/09/12 03:58:52;;;;;;;1.63;1.30;;;13.60;86.20;;;;;;5094076;28;20089;-74
2022/09/12 04:01:19;;;;;;;1.38;1.20;;;13.60;86.30;;;;;;5111909;28;20040;-75
2022/09/12 04:03:48;;;;;;;2.17;1.55;;;13.60;86.30;;;;;;5112461;28;20051;-75
2022/09/12 04:06:17;;;;;;;1.35;1.20;;;13.60;86.30;;;;;;5112692;28;20374;-75
2022/09/12 04:08:46;;;;;;;2.25;1.50;;;13.60;86.30;;;;;;5094041;28;20046;-75
2022/09/12 04:11:14;;;;;;;1.42;1.00;;;13.60;86.30;;;;;;5094368;28;20451;-75
2022/09/12 04:13:42;;;;;;;1.75;1.27;;;13.60;86.30;;;;;;5112643;28;20051;-75
2022/09/12 04:16:08;;;;;;;1.52;1.20;;;13.60;86.30;;;;;;5094022;28;20091;-75
2022/09/12 04:18:35;;;;;;;1.83;1.48;;;13.60;86.30;;;;;;5112167;28;20084;-75
2022/09/12 04:21:06;;;;;;;2.28;1.50;;;13.60;87.00;;;;;;5094277;28;20058;-75
2022/09/12 04:23:32;;;;;;;1.42;1.20;;;13.60;86.40;;;;;;5112658;28;20177;-75
2022/09/12 04:26:00;;;;;;;1.67;1.17;;;13.60;86.30;;;;;;5114578;28;20462;-75
2022/09/12 04:28:27;;;;;;;2.17;1.42;;;13.60;86.40;;;;;;5116004;28;20040;-75
2022/09/12 04:30:54;;;;;;;2.00;1.35;;;13.60;86.40;;;;;;5113819;28;20550;-75
2022/09/12 04:33:20;;;;;;;1.50;1.25;;;13.60;86.40;;;;;;5115559;28;20063;-74
2022/09/12 04:35:47;;;;;;;1.70;1.33;;;13.70;86.40;;;;;;5115931;28;20035;-74
2022/09/12 04:38:13;;;;;;;2.03;1.48;;;13.60;86.30;;;;;;5080489;28;20500;-74
2022/09/12 04:40:38;;;;;;;2.00;1.30;;;13.60;86.30;;;;;;5116093;28;20044;-74
2022/09/12 04:43:05;;;;;;;2.05;1.30;;;13.60;86.30;;;;;;5115725;28;20040;-74
2022/09/12 04:45:32;;;;;;;1.92;1.30;;;13.60;86.30;;;;;;5115754;28;20119;-75
2022/09/12 04:47:58;;;;;;;3.20;1.70;;;13.60;86.30;;;;;;5116142;28;20035;-75
2022/09/12 04:50:24;;;;;;;1.85;1.40;;;13.60;86.30;;;;;;5115960;28;20100;-75
2022/09/12 04:52:51;;;;;;;2.53;1.50;;;13.60;86.40;;;;;;5097190;28;20459;-75
2022/09/12 04:55:21;;;;;;;1.90;1.38;;;13.60;86.40;;;;;;5115269;28;20088;-75
2022/09/12 04:57:46;;;;;;;2.92;1.60;;;13.60;86.40;;;;;;5115339;28;20039;-75
2022/09/12 05:00:13;;;;;;;2.47;1.52;;;13.60;86.40;;;;;;5115392;28;20121;-75
2022/09/12 05:02:40;;;;;;;2.72;1.55;;;13.70;86.40;;;;;;5097272;28;20133;-75
2022/09/12 05:05:08;;;;;;;2.72;1.70;;;13.80;86.40;;;;;;5096462;28;20063;-75
2022/09/12 05:07:34;;;;;;;2.35;1.40;;;13.70;86.30;;;;;;5115611;28;20036;-75
2022/09/12 05:10:00;;;;;;;2.67;1.70;;;13.70;86.30;;;;;;5115793;28;20048;-75
2022/09/12 05:12:26;;;;;;;2.47;1.50;;;13.70;86.30;;;;;;5115554;28;20117;-75
2022/09/12 05:14:53;;;;;;;2.15;1.40;;;13.80;86.30;;;;;;5115510;28;20062;-75
2022/09/12 05:17:18;;;;;;;2.80;1.50;;;13.80;86.30;;;;;;5114930;28;20036;-75
2022/09/12 05:19:44;;;;;;;3.28;1.60;;;13.80;86.30;;;;;;5096800;28;20047;-75
2022/09/12 05:22:10;;;;;;;2.95;1.77;;;13.80;86.20;;;;;;5115242;28;20058;-75
2022/09/12 05:24:38;;;;;;;2.83;1.73;;;13.80;86.30;;;;;;5114775;28;20095;-75
2022/09/12 05:27:04;;;;;;;3.15;1.70;;;13.80;86.30;;;;;;5080713;28;20438;-75
2022/09/12 05:29:30;;;;;;;2.67;1.85;;;13.80;86.30;;;;;;5096598;28;20040;-75
2022/09/12 05:31:56;;;;;;;3.28;1.73;;;13.80;86.30;;;;;;5114693;28;20040;-74
2022/09/12 05:34:22;;;;;;;3.22;1.90;;;13.80;86.40;;;;;;5114812;28;20396;-75
2022/09/12 05:36:48;;;;;;;3.45;2.10;;;13.90;86.40;;;;;;5114605;28;20032;-74
2022/09/12 05:39:14;;;;;;;3.13;1.63;;;13.90;86.40;;;;;;5114662;28;20466;-75
2022/09/12 05:41:39;;;;;;;2.10;1.58;;;14.10;86.50;;;;;;5115101;28;20477;-75
2022/09/12 05:44:10;;;;;;;3.55;1.90;;;13.90;86.30;;;;;;5114414;28;20040;-75
2022/09/12 05:46:38;;;;;;;2.55;1.50;;;14.00;86.40;;;;;;5114448;28;20040;-75
2022/09/12 05:49:06;;;;;;;3.15;1.60;;;14.00;86.40;;;;;;5114602;28;20036;-75
2022/09/12 05:51:34;;;;;;;2.33;1.42;;;14.00;86.30;;;;;;5096402;28;20044;-75
2022/09/12 05:54:03;;;;;;;3.22;1.60;;;14.00;86.30;;;;;;5114482;28;20131;-75
2022/09/12 05:56:32;;;;;;;2.92;1.50;;;14.10;86.30;;;;;;5096298;28;20042;-75
2022/09/12 05:59:01;;;;;;;3.10;1.77;;;14.10;86.30;;;;;;5114255;28;20032;-75
2022/09/12 06:01:29;;;;;;;2.33;1.58;;;14.10;86.20;;;;;;5114357;28;20393;-75
2022/09/12 06:03:59;;;;;;;3.50;2.00;;;14.10;86.20;;;;;;5095986;28;20393;-75
2022/09/12 06:06:26;;;;;;;2.72;1.77;;;14.20;86.20;;;;;;5095930;28;20180;-75
2022/09/12 06:08:57;;;;;;;3.20;1.70;;;14.20;86.10;;;;;;5114136;28;20047;-76
2022/09/12 06:11:27;;;;;;;3.08;1.75;;;14.30;86.20;;;;;;5096342;28;20052;-75
2022/09/12 06:13:56;;;;;;;4.10;2.03;;;14.30;86.10;;;;;;5095972;28;20051;-75
2022/09/12 06:16:24;;;;;;;3.38;1.70;;;14.40;86.10;;;;;;5096369;28;20070;-75
2022/09/12 06:18:52;;;;;;;3.45;1.80;;;14.40;86.00;;;;;;5095552;28;20059;-74
2022/09/12 06:21:19;;;;;;;3.30;2.00;;;14.40;86.00;;;;;;5114163;28;20040;-75
2022/09/12 06:23:45;;;;;;;2.67;1.48;;;14.40;86.00;;;;;;5113713;28;20409;-75
2022/09/12 06:26:13;;;;;;;3.03;1.90;;;14.40;86.00;;;;;;5095949;28;20052;-74
2022/09/12 06:28:41;;;;;;;3.40;1.70;;;14.50;86.00;;;;;;5095421;28;20503;-74
2022/09/12 06:31:10;;;;;;;2.70;1.50;;;14.60;86.00;;;;;;5113946;28;20108;-74
2022/09/12 06:33:39;;;;;;;2.85;1.50;;;14.50;86.00;;;;;;5113573;28;20039;-74
2022/09/12 06:36:07;;;;;;;2.40;1.60;;;14.60;86.00;;;;;;5095933;28;20513;-75
2022/09/12 06:38:33;;;;;;;2.85;1.55;;;14.70;86.10;;;;;;5113731;28;20122;-76
2022/09/12 06:40:59;;;;;;;1.98;1.40;;;14.60;86.00;;;;;;5095700;28;20071;-77
2022/09/12 06:43:27;;;;;;;2.85;1.50;;;14.70;86.10;;;;;;5113753;28;20035;-77
2022/09/12 06:45:52;;;;;;;2.50;1.50;;;14.70;86.10;;;;;;5098041;28;20052;-76
2022/09/12 06:48:18;;;;;;;3.03;1.63;;;14.70;86.10;;;;;;5113243;28;20063;-76
2022/09/12 06:50:57;;;;;;;3.53;1.77;;;14.70;86.20;;;;;;5095495;28;20444;-76
2022/09/12 06:53:24;;;;;;;3.58;1.98;;;14.70;86.20;;;;;;5116246;28;20032;-76
2022/09/12 06:56:00;;;;;;;4.25;2.00;;;14.70;86.20;;;;;;5118653;28;20032;-78
2022/09/12 06:58:27;;;;;;;3.55;2.00;;;14.70;86.30;;;;;;5096240;28;20035;-78
2022/09/12 07:01:02;;;;;;;3.83;1.88;;;14.70;86.30;;;;;;5117553;28;20035;-78
2022/09/12 07:03:28;;;;;;;3.15;2.10;;;14.60;86.40;;;;;;5099009;28;20063;-78
2022/09/12 07:05:54;;;;;;;3.17;1.73;;;14.70;86.40;;;;;;5096585;28;20071;-78
2022/09/12 07:08:20;;;;;;;3.65;1.92;;;14.80;86.50;;;;;;5095130;28;20421;-77
2022/09/12 07:10:45;;;;;;;3.25;1.65;;;14.80;86.40;;;;;;5117083;28;20035;-75
2022/09/12 07:16:48;;;;;;;2.25;1.50;;;15.00;86.30;;;;;;4951708;29;20441;-78
2022/09/12 07:19:19;;;;;;;3.55;1.88;;;15.10;86.10;;;;;;4964394;28;20036;-77
2022/09/12 07:21:54;;;;;;;3.78;2.10;;;15.20;86.10;;;;;;4969212;28;20081;-77
2022/09/12 07:24:20;;;;;;;3.50;2.10;;;15.20;86.00;;;;;;4937802;29;20114;-78
2022/09/12 07:27:22;;;;;;;3.88;2.08;;;15.30;85.90;;;;;;4951261;29;20043;-78
2022/09/12 07:29:55;;;;;;;;;;;15.30;85.80;;;;;;4899689;29;20036;-78
2022/09/12 07:32:21;;;;;;;2.65;1.63;;;15.30;85.60;;;;;;4899984;29;19926;-77
2022/09/12 07:34:58;;;;;;;3.88;1.88;;;15.40;85.60;;;;;;4899299;29;20123;-78
2022/09/12 07:41:00;;;;;;;4.22;2.42;;;15.50;85.70;;;;;;4883290;29;20131;-77
2022/09/12 07:44:07;;;;;;;2.90;1.75;;;15.50;85.70;;;;;;4875707;29;20116;-76
2022/09/12 07:49:38;;;;;;;4.40;2.30;;;15.70;85.50;;;;;;4895294;29;20572;-76
2022/09/12 07:55:39;;;;;;;4.10;2.08;;;15.90;85.30;;;;;;4938649;29;20111;-76
2022/09/12 07:58:59;;;;;;;3.35;2.10;;;16.00;85.10;;;;;;4919283;29;20036;-78
2022/09/12 08:01:57;;;;;;;3.85;2.05;;;16.10;85.10;;;;;;4970959;28;20148;-76
2022/09/12 08:04:22;;;;;;;4.45;2.08;;;16.10;85.00;;;;;;4958038;28;20047;-77
2022/09/12 08:07:02;;;;;;;3.75;1.83;;;16.10;85.00;;;;;;4959633;28;20054;-78
2022/09/12 08:09:33;;;;;;;3.15;1.92;;;16.20;85.00;;;;;;4919928;29;20051;-76
2022/09/12 08:12:56;;;;;;;2.92;1.95;;;16.30;85.20;;;;;;4896268;29;20145;-77
2022/09/12 08:16:15;;;;;;;4.05;2.00;;;16.30;85.20;;;;;;4972614;28;20035;-77
2022/09/12 08:19:03;;;;;;;4.15;2.20;;;16.30;85.00;;;;;;4983262;28;20039;-77
2022/09/12 08:24:56;;;;;;;3.22;2.10;;;16.60;84.90;;;;;;4914608;29;20410;-76
2022/09/12 08:27:38;;;;;;;4.88;2.47;;;16.70;84.70;;;;;;4916527;29;20043;-77
2022/09/12 08:30:20;;;;;;;4.03;2.05;;;16.80;84.60;;;;;;4929798;29;20044;-78
2022/09/12 08:47:43;;;;;;;3.00;1.80;;;17.40;83.90;;;;;;4877749;29;20040;-80
2022/09/12 08:53:50;;;;;;;4.95;2.55;;;17.70;83.60;;;;;;4870087;29;20056;-76
2022/09/12 08:56:16;;;;;;;4.40;1.90;;;17.90;83.40;;;;;;4900764;29;20048;-74
2022/09/12 08:58:44;;;;;;;3.05;1.90;;;17.90;83.10;;;;;;4900445;29;20567;-77
2022/09/12 09:01:30;;;;;;;3.60;2.00;;;18.10;83.20;;;;;;4869315;29;20135;-76
2022/09/12 09:04:26;;;;;;;3.67;1.77;;;18.20;83.20;;;;;;4884231;29;20451;-75
2022/09/12 09:07:21;;;;;;;3.20;2.00;;;18.30;83.00;;;;;;4884878;29;20047;-75
2022/09/12 09:10:08;;;;;;;2.75;1.85;;;18.50;83.00;;;;;;4886663;29;20088;-75
2022/09/12 09:12:54;;;;;;;1.88;1.42;;;18.60;82.80;;;;;;4889277;29;20047;-75
2022/09/12 09:15:42;;;;;;;2.75;1.42;;;18.70;82.70;;;;;;4934450;28;20038;-76
2022/09/12 09:18:22;;;;;;;3.17;1.80;;;18.80;82.60;;;;;;4963667;28;20058;-74
2022/09/12 09:21:05;;;;;;;4.00;2.42;;;18.80;82.40;;;;;;4997222;28;20080;-75
2022/09/12 09:23:38;;;;;;;3.97;2.65;;;18.90;82.40;;;;;;5039295;28;20066;-76
2022/09/12 09:26:25;;;;;;;3.80;2.20;;;18.90;82.30;;;;;;5067706;28;20131;-76
2022/09/12 09:29:05;;;;;;;2.58;1.85;;;19.00;82.30;;;;;;5035997;28;20099;-75
2022/09/12 09:31:37;;;;;;;2.13;1.50;;;19.10;82.30;;;;;;5000978;28;20041;-75
2022/09/12 09:34:24;;;;;;;3.65;2.20;;;19.20;82.20;;;;;;5018671;28;20140;-75
2022/09/12 09:37:06;;;;;;;3.47;2.10;;;19.30;82.00;;;;;;5050314;28;20071;-76
2022/09/12 09:40:01;;;;;;;1.88;1.55;;;19.40;81.80;;;;;;5035318;28;20061;-76
2022/09/12 09:42:43;;;;;;;3.15;2.03;;;19.40;81.70;;;;;;5051771;28;20056;-74
2022/09/12 09:45:19;;;;;;;3.33;2.22;;;19.50;81.50;;;;;;5052144;28;20140;-74
2022/09/12 09:47:58;;;;;;;3.28;2.13;;;19.60;81.30;;;;;;5035230;28;20543;-73
2022/09/12 09:50:24;;;;;;;2.17;1.77;;;19.60;81.00;;;;;;5037006;28;20111;-74
2022/09/12 09:52:51;;;;;;;2.65;1.90;;;19.70;81.00;;;;;;5051725;28;20506;-76
2022/09/12 09:55:23;;;;;;;3.20;1.85;;;19.80;80.90;;;;;;5052174;28;20059;-74
2022/09/12 09:57:52;;;;;;;3.42;2.30;;;19.80;80.70;;;;;;5035524;28;20145;-74
2022/09/12 10:00:35;;;;;;;2.30;1.80;;;19.80;80.60;;;;;;5097994;28;20048;-75
2022/09/12 10:03:24;;;;;;;3.55;1.80;;;19.90;80.50;;;;;;5113400;28;20553;-75
2022/09/12 10:05:52;;;;;;;2.97;1.67;;;19.90;80.40;;;;;;5098985;28;20046;-76
2022/09/12 10:08:25;;;;;;;2.05;1.60;;;20.00;80.30;;;;;;5114864;28;20121;-77
2022/09/12 10:10:54;;;;;;;2.55;1.73;;;20.00;80.20;;;;;;5114267;28;20126;-74
2022/09/12 10:13:36;;;;;;;2.85;1.80;;;20.10;80.10;;;;;;5114039;28;20047;-74
2022/09/12 10:16:05;;;;;;;2.25;1.50;;;20.00;79.90;;;;;;5114485;28;20073;-74
2022/09/12 10:18:36;;;;;;;1.55;1.20;;;20.10;79.90;;;;;;5095568;28;20493;-74
2022/09/12 10:21:12;;;;;;;2.60;1.83;;;20.20;79.80;;;;;;5095522;28;20123;-75
2022/09/12 10:23:40;;;;;;;2.88;1.95;;;20.20;79.70;;;;;;5112872;28;20043;-73
2022/09/12 10:26:17;;;;;;;2.55;1.52;;;20.30;79.60;;;;;;5113810;28;20547;-74
2022/09/12 10:28:49;;;;;;;2.65;1.70;;;20.30;79.30;;;;;;5096312;28;20115;-73
2022/09/12 10:50:29;;;;;;;1.65;1.40;;;20.80;77.80;;;;;;5031092;28;20371;-74
2022/09/12 11:30:18;;;;;;;1.40;1.20;;;21.60;75.80;;;;;;4894039;29;20117;-78
2022/09/12 11:39:40;;;;;;;1.05;0.90;;;21.90;75.10;;;;;;4854198;29;20107;-77
2022/09/12 11:42:15;;;;;;;1.10;1.00;;;22.10;74.80;;;;;;4905334;28;20051;-78
2022/09/12 11:44:46;;;;;;;0.80;0.80;;;22.30;74.50;;;;;;4952895;28;20417;-74
2022/09/12 11:47:19;;;;;;;2.35;1.30;;;22.40;74.30;;;;;;4953047;28;20098;-77
2022/09/12 11:49:49;;;;;;;2.13;1.50;;;22.40;74.00;;;;;;4936540;29;20051;-78
2022/09/12 11:52:19;;;;;;;1.93;1.40;;;22.60;73.70;;;;;;4936548;28;20076;-78
2022/09/12 11:54:58;;;;;;;1.58;1.30;;;22.60;73.50;;;;;;4952259;28;20371;-76
2022/09/12 11:57:35;;;;;;;1.40;1.10;;;22.60;73.30;;;;;;4954068;28;20154;-78
2022/09/12 12:00:15;;;;;;;1.20;1.10;;;22.70;73.20;;;;;;4936708;28;20040;-78
2022/09/12 12:02:56;;;;;;;0.80;0.80;;;22.80;73.00;;;;;;4951961;28;20525;-76
2022/09/12 12:05:37;;;;;;;1.45;1.10;;;22.80;73.10;;;;;;5017765;28;20148;-79
2022/09/12 12:08:04;;;;;;;1.35;1.20;;;22.80;73.00;;;;;;5110843;28;20051;-75
2022/09/12 12:10:39;;;;;;;1.67;1.20;;;22.90;72.90;;;;;;5112833;28;20505;-78
2022/09/12 12:13:18;;;;;;;1.77;1.40;;;23.00;72.60;;;;;;5092711;28;20424;-79
2022/09/12 12:15:51;;;;;;;1.17;1.08;;;23.10;72.40;;;;;;5095094;28;20071;-78
2022/09/12 12:18:26;;;;;;;1.98;1.50;;;23.20;72.10;;;;;;5112681;28;20055;-77
2022/09/12 12:20:53;;;;;;;1.52;1.35;;;23.20;71.80;;;;;;5111249;28;20035;-79
2022/09/12 12:23:32;;;;;;;1.50;1.30;;;23.30;71.70;;;;;;5094786;28;20035;-77
2022/09/12 12:26:01;;;;;;;1.40;1.30;;;23.30;71.60;;;;;;5111571;28;20401;-78
2022/09/12 12:28:56;;;;;;;2.35;1.50;;;23.30;71.50;;;;;;5112065;28;20040;-76
2022/09/12 12:31:22;;;;;;;1.45;1.20;;;23.30;71.50;;;;;;5076825;28;20032;-76
2022/09/12 12:33:53;;;;;;;1.50;1.08;;;23.30;71.40;;;;;;5093965;28;20390;-76
2022/09/12 12:36:37;;;;;;;1.10;0.98;;;23.50;71.30;;;;;;5094189;28;20085;-77
2022/09/12 12:39:41;;;;;;;1.60;1.15;;;23.50;71.10;;;;;;5112076;28;20036;-76
2022/09/12 12:42:07;;;;;;;1.52;1.38;;;23.60;70.70;;;;;;5095235;28;20043;-76
2022/09/12 12:44:50;;;;;;;2.13;1.20;;;23.60;70.50;;;;;;5093493;28;20047;-76
2022/09/12 12:47:22;;;;;;;1.20;1.10;;;23.50;70.50;;;;;;5113593;28;20040;-76
2022/09/12 12:49:52;;;;;;;1.63;1.05;;;23.60;70.50;;;;;;5114781;28;20059;-75
2022/09/12 12:52:19;;;;;;;1.27;1.17;;;23.70;70.30;;;;;;5096957;28;20043;-78
2022/09/12 12:55:10;;;;;;;1.75;1.20;;;23.70;70.20;;;;;;5097243;28;20039;-77
2022/09/12 12:57:48;;;;;;;1.30;1.00;;;23.80;70.10;;;;;;5113510;28;20127;-78
2022/09/12 13:00:37;;;;;;;1.35;1.10;;;23.80;70.10;;;;;;5115355;28;20042;-76
2022/09/12 13:03:26;;;;;;;0.98;0.98;;;23.80;70.00;;;;;;5114799;28;20063;-76
2022/09/12 13:05:59;;;;;;;1.58;1.00;;;23.80;70.00;;;;;;5113383;28;20481;-76
2022/09/12 13:08:30;;;;;;;0.73;0.70;;;23.80;70.10;;;;;;5113563;28;20100;-76
2022/09/12 13:11:03;;;;;;;1.27;1.17;;;23.90;70.10;;;;;;5114855;28;20050;-78
2022/09/12 13:13:52;;;;;;;1.20;1.10;;;23.90;70.00;;;;;;5114995;28;20050;-79
2022/09/12 13:27:24;;;;;;;1.40;1.20;;;23.80;69.80;;;;;;5047685;28;20056;-81
2022/09/12 13:34:14;;;;;;;1.38;1.13;;;24.00;69.40;;;;;;5050769;28;20119;-77
2022/09/12 13:37:29;;;;;;;0.95;0.93;;;24.00;69.20;;;;;;5048528;28;20056;-77
2022/09/12 13:40:27;;;;;;;1.30;1.20;;;24.10;69.20;;;;;;5060655;28;20044;-81
2022/09/12 13:51:16;;;;;;;0.90;0.90;;;24.00;69.00;;;;;;4945177;29;20063;-83
2022/09/12 13:57:32;;;;;;;;;;;24.00;68.90;;;;;;4895995;29;20044;-77
2022/09/12 14:00:00;;;;;;;1.00;0.80;;;24.10;69.00;;;;;;4877060;29;20459;-78
2022/09/12 14:02:30;;;;;;;1.83;1.10;;;23.90;69.00;;;;;;4876597;29;20064;-77
2022/09/12 14:07:57;;;;;;;1.20;1.10;;;23.90;69.10;;;;;;4876910;29;20109;-75
2022/09/12 14:10:40;;;;;;;1.65;1.27;;;23.80;69.00;;;;;;4878036;29;20045;-75
2022/09/12 14:13:20;;;;;;;1.10;1.00;;;23.80;68.90;;;;;;4878149;29;20132;-76
2022/09/12 14:15:49;;;;;;;0.95;0.90;;;23.90;68.90;;;;;;4887604;29;20096;-75
2022/09/12 14:18:26;;;;;;;1.25;1.08;;;23.90;68.80;;;;;;4937282;29;20075;-78
2022/09/12 14:20:59;;;;;;;2.03;1.30;;;23.90;68.60;;;;;;4920686;29;20040;-79
2022/09/12 14:23:31;;;;;;;2.20;1.35;;;24.00;68.40;;;;;;4908409;28;20050;-79
2022/09/12 14:25:58;;;;;;;1.33;1.20;;;23.90;68.20;;;;;;4960277;28;20073;-76
2022/09/12 14:28:29;;;;;;;1.48;1.30;;;23.90;68.20;;;;;;5039594;28;20471;-81
2022/09/12 14:31:06;;;;;;;2.10;1.35;;;23.90;68.20;;;;;;5061295;28;20063;-77
2022/09/12 14:33:47;;;;;;;1.30;1.17;;;23.80;68.10;;;;;;5053351;28;20057;-78
2022/09/12 14:36:21;;;;;;;;;;;23.80;67.90;;;;;;5052326;28;20044;-77
2022/09/12 14:38:54;;;;;;;1.77;1.30;;;23.80;68.00;;;;;;5054498;28;19912;-77
2022/09/12 14:41:26;;;;;;;2.63;1.30;;;23.80;67.90;;;;;;5037765;28;20049;-77
2022/09/12 14:43:57;;;;;;;1.13;1.02;;;23.80;67.70;;;;;;5040910;28;20052;-78
2022/09/12 14:46:30;;;;;;;1.38;1.23;;;23.80;67.80;;;;;;5021524;28;20056;-78
2022/09/12 14:49:20;;;;;;;1.15;1.05;;;23.80;67.70;;;;;;5050777;28;20044;-82
2022/09/12 14:52:29;;;;;;;1.10;1.00;;;23.80;67.60;;;;;;4991992;28;20149;-83
2022/09/12 14:55:16;;;;;;;0.80;0.80;;;23.80;67.60;;;;;;4976022;28;20615;-76
2022/09/12 14:57:44;;;;;;;0.77;0.77;;;23.90;67.40;;;;;;5050555;28;20053;-77
2022/09/12 15:00:19;;;;;;;1.42;1.10;;;24.00;67.40;;;;;;5051319;28;20101;-79
2022/09/12 15:02:47;;;;;;;0.85;0.77;;;23.90;67.10;;;;;;5067770;28;20029;-78
2022/09/12 15:05:19;;;;;;;1.00;0.90;;;23.90;67.10;;;;;;5062614;28;20427;-79
2022/09/12 15:08:00;;;;;;;1.10;1.00;;;23.90;67.00;;;;;;5051862;28;20450;-78
2022/09/12 15:10:40;;;;;;;1.05;0.95;;;23.80;67.00;;;;;;5017999;28;20487;-76
2022/09/12 15:13:13;;;;;;;1.38;1.00;;;23.90;67.00;;;;;;5052297;28;20053;-80
2022/09/12 15:15:43;;;;;;;0.80;0.80;;;23.80;67.00;;;;;;5017495;28;20040;-82
2022/09/12 15:18:08;;;;;;;0.60;0.60;;;23.80;67.10;;;;;;5071764;28;20055;-79
2022/09/12 15:20:37;;;;;;;0.77;0.77;;;23.80;67.20;;;;;;5070788;28;20510;-79
2022/09/12 15:23:09;;;;;;;0.85;0.85;;;23.80;67.20;;;;;;5073620;28;20107;-80
2022/09/12 15:25:48;;;;;;;0.75;0.75;;;23.70;67.10;;;;;;5073388;28;20060;-80
2022/09/12 15:32:13;;;;;;;1.10;1.00;;;23.70;67.10;;;;;;5009970;28;20582;-80
2022/09/12 15:35:04;;;;;;;0.70;0.70;;;23.70;67.10;;;;;;4996450;28;20053;-79